Time;durP1;ratioP1;P1;durP2;ratioP2;P2;SDS_P1;SDS_P2;PMS_P1;PMS_P2;Temp;Humidity;BMP_temperature;BMP_pressure;BME280_temperature;BME280_humidity;BME280_pressure;Samples;Min_cycle;Max_cycle;Signal;HPM_P1;HPM_P2
2021/06/26 00:00:18;;;;;;;56.33;35.08;;;16.60;99.90;;;;;;5051173;28;20109;-78
2021/06/26 00:02:43;;;;;;;51.47;32.55;;;16.60;99.90;;;;;;5045548;28;20364;-78
2021/06/26 00:05:12;;;;;;;50.95;32.10;;;16.60;99.90;;;;;;5051538;28;20125;-78
2021/06/26 00:07:38;;;;;;;61.33;35.53;;;16.60;99.90;;;;;;5052877;28;20388;-78
2021/06/26 00:10:06;;;;;;;55.60;33.55;;;16.60;99.90;;;;;;5051557;28;20108;-78
2021/06/26 00:12:33;;;;;;;59.90;34.40;;;16.60;99.90;;;;;;5049973;28;20036;-78
2021/06/26 00:14:58;;;;;;;56.92;35.03;;;16.60;99.90;;;;;;5047370;28;20109;-78
2021/06/26 00:17:24;;;;;;;56.55;33.08;;;16.60;99.90;;;;;;5051368;28;20127;-78
2021/06/26 00:19:50;;;;;;;55.08;32.45;;;16.60;99.90;;;;;;5046455;28;20072;-78
2021/06/26 00:22:17;;;;;;;45.72;30.05;;;16.60;99.90;;;;;;5050434;28;20055;-78
2021/06/26 00:24:43;;;;;;;48.00;29.42;;;16.50;99.90;;;;;;5051054;28;20041;-78
2021/06/26 00:27:09;;;;;;;49.20;31.00;;;16.50;99.90;;;;;;5048405;28;20120;-79
2021/06/26 00:29:35;;;;;;;49.03;31.27;;;16.50;99.90;;;;;;5050737;28;20547;-78
2021/06/26 00:32:00;;;;;;;52.30;31.60;;;16.40;99.90;;;;;;5050282;28;20033;-78
2021/06/26 00:34:26;;;;;;;49.47;32.35;;;16.50;99.90;;;;;;5044173;28;20061;-78
2021/06/26 00:36:52;;;;;;;45.97;31.58;;;16.50;99.90;;;;;;5065554;28;20052;-78
2021/06/26 00:39:18;;;;;;;45.63;29.73;;;16.50;99.90;;;;;;5048761;28;20037;-78
2021/06/26 00:41:44;;;;;;;50.90;30.38;;;16.60;99.90;;;;;;5051289;28;20102;-78
2021/06/26 00:44:10;;;;;;;47.17;30.33;;;16.60;99.90;;;;;;5052287;28;20029;-78
2021/06/26 00:46:36;;;;;;;42.67;29.45;;;16.60;99.90;;;;;;5050871;28;20102;-78
2021/06/26 00:49:04;;;;;;;40.03;27.50;;;16.60;99.90;;;;;;5047117;28;20036;-78
2021/06/26 00:51:30;;;;;;;38.20;27.20;;;16.60;99.90;;;;;;5065866;28;20489;-78
2021/06/26 00:53:56;;;;;;;40.95;28.27;;;16.70;99.90;;;;;;5040103;28;20052;-78
2021/06/26 00:56:23;;;;;;;47.10;29.33;;;16.70;99.90;;;;;;5047034;28;20033;-78
2021/06/26 00:58:49;;;;;;;49.80;32.03;;;16.70;99.90;;;;;;5046677;28;20406;-78
2021/06/26 01:01:15;;;;;;;50.55;32.85;;;16.70;99.90;;;;;;5048173;28;20129;-78
2021/06/26 01:03:43;;;;;;;45.65;29.55;;;16.70;99.90;;;;;;5045120;28;20480;-78
2021/06/26 01:06:09;;;;;;;47.60;32.15;;;16.70;99.90;;;;;;5049928;28;20036;-78
2021/06/26 01:08:35;;;;;;;54.78;33.25;;;16.70;99.90;;;;;;5049343;28;20040;-78
2021/06/26 01:11:01;;;;;;;51.78;33.00;;;16.80;99.90;;;;;;5050700;28;20465;-78
2021/06/26 01:13:28;;;;;;;54.28;34.13;;;16.80;99.90;;;;;;5050244;28;20484;-78
2021/06/26 01:15:54;;;;;;;56.22;35.40;;;16.80;99.90;;;;;;5046680;28;20124;-78
2021/06/26 01:18:19;;;;;;;50.25;32.72;;;16.80;99.90;;;;;;5046664;28;20440;-78
2021/06/26 01:20:46;;;;;;;49.40;33.30;;;16.80;99.90;;;;;;5046844;28;20041;-78
2021/06/26 01:23:14;;;;;;;51.03;34.03;;;16.80;99.90;;;;;;5048917;28;20040;-78
2021/06/26 01:25:40;;;;;;;51.45;33.22;;;16.80;99.90;;;;;;5050795;28;21910;-78
2021/06/26 01:28:06;;;;;;;50.45;33.38;;;16.80;99.90;;;;;;5049321;28;20043;-78
2021/06/26 01:30:34;;;;;;;51.30;34.25;;;16.70;99.90;;;;;;5046537;28;20421;-78
2021/06/26 01:33:01;;;;;;;50.55;33.30;;;16.80;99.90;;;;;;5049907;28;20481;-78
2021/06/26 01:35:27;;;;;;;49.83;32.58;;;16.80;99.90;;;;;;5049445;28;20128;-78
2021/06/26 01:37:54;;;;;;;50.58;32.38;;;16.80;99.90;;;;;;5050050;28;20057;-78
2021/06/26 01:40:22;;;;;;;47.72;32.35;;;16.80;99.90;;;;;;5044462;28;20032;-78
2021/06/26 01:42:49;;;;;;;53.88;33.47;;;16.80;99.90;;;;;;5048530;28;20086;-78
2021/06/26 01:45:16;;;;;;;52.05;32.20;;;16.80;99.90;;;;;;5049795;28;20037;-78
2021/06/26 01:47:56;;;;;;;52.53;33.80;;;16.80;99.90;;;;;;5049818;28;20047;-78
2021/06/26 01:50:27;;;;;;;53.72;34.45;;;16.80;99.90;;;;;;5047935;28;20116;-78
2021/06/26 01:52:53;;;;;;;55.50;34.85;;;16.80;99.90;;;;;;5043990;28;20477;-78
2021/06/26 01:55:20;;;;;;;50.88;33.35;;;16.80;99.90;;;;;;5048679;28;20132;-78
2021/06/26 01:57:48;;;;;;;49.20;32.90;;;16.70;99.90;;;;;;5062771;28;20052;-78
2021/06/26 02:00:15;;;;;;;50.35;33.55;;;16.70;99.90;;;;;;5050364;28;20116;-78
2021/06/26 02:02:42;;;;;;;51.42;33.55;;;16.70;99.90;;;;;;5049183;28;20045;-78
2021/06/26 02:05:09;;;;;;;51.47;32.00;;;16.70;99.90;;;;;;5046459;28;20094;-78
2021/06/26 02:07:36;;;;;;;49.90;32.55;;;16.80;99.90;;;;;;5044083;28;20052;-78
2021/06/26 02:10:04;;;;;;;54.75;34.38;;;16.80;99.90;;;;;;5050038;28;20085;-78
2021/06/26 02:12:30;;;;;;;55.42;35.55;;;16.80;99.90;;;;;;5047232;28;20041;-78
2021/06/26 02:14:56;;;;;;;57.03;36.45;;;16.80;99.90;;;;;;5044842;28;20496;-78
2021/06/26 02:17:22;;;;;;;61.30;37.17;;;16.80;99.90;;;;;;5067829;28;20037;-78
2021/06/26 02:19:49;;;;;;;55.97;36.20;;;16.80;99.90;;;;;;5056807;28;20468;-78
2021/06/26 02:22:16;;;;;;;55.00;35.53;;;16.80;99.90;;;;;;5056255;28;20106;-78
2021/06/26 02:24:42;;;;;;;55.78;36.05;;;16.70;99.90;;;;;;5054144;28;20037;-78
2021/06/26 02:27:08;;;;;;;57.30;36.47;;;16.70;99.90;;;;;;5045542;28;20343;-78
2021/06/26 02:29:34;;;;;;;58.22;35.97;;;16.70;99.90;;;;;;5069023;28;20037;-78
2021/06/26 02:32:00;;;;;;;61.53;38.22;;;16.70;99.90;;;;;;5053637;28;20095;-79
2021/06/26 02:34:26;;;;;;;63.85;38.88;;;16.70;99.90;;;;;;5053691;28;20481;-78
2021/06/26 02:36:52;;;;;;;54.30;34.95;;;16.70;99.90;;;;;;5047719;28;20041;-78
2021/06/26 02:39:18;;;;;;;56.05;35.55;;;16.70;99.90;;;;;;5068564;28;20091;-78
2021/06/26 02:41:44;;;;;;;54.83;34.25;;;16.70;99.90;;;;;;5051045;28;20481;-78
2021/06/26 02:44:10;;;;;;;52.42;33.45;;;16.70;99.90;;;;;;5049066;28;20042;-78
2021/06/26 02:46:36;;;;;;;50.45;32.38;;;16.70;99.90;;;;;;5053223;28;20040;-78
2021/06/26 02:49:02;;;;;;;51.00;33.22;;;16.70;99.90;;;;;;5047699;28;20804;-78
2021/06/26 02:51:28;;;;;;;48.13;31.92;;;16.80;99.90;;;;;;5049595;28;20211;-78
2021/06/26 02:53:54;;;;;;;51.47;30.40;;;16.70;99.90;;;;;;5049330;28;20199;-78
2021/06/26 02:56:20;;;;;;;44.92;29.25;;;16.70;99.90;;;;;;5051341;28;20041;-78
2021/06/26 02:58:46;;;;;;;48.72;30.35;;;16.70;99.90;;;;;;5034510;28;20053;-78
2021/06/26 03:01:12;;;;;;;47.80;30.65;;;16.70;99.90;;;;;;5052469;28;20487;-78
2021/06/26 03:03:37;;;;;;;49.78;32.97;;;16.70;99.90;;;;;;5053099;28;20132;-78
2021/06/26 03:06:03;;;;;;;50.75;33.15;;;16.70;99.90;;;;;;5052290;28;20060;-78
2021/06/26 03:08:29;;;;;;;51.55;34.05;;;16.70;99.90;;;;;;5053421;28;20041;-78
2021/06/26 03:10:55;;;;;;;53.33;34.25;;;16.70;99.90;;;;;;5049917;28;20056;-78
2021/06/26 03:13:21;;;;;;;53.45;33.60;;;16.70;99.90;;;;;;5042615;28;20496;-78
2021/06/26 03:15:47;;;;;;;48.25;33.95;;;16.70;99.90;;;;;;5047401;28;20158;-78
2021/06/26 03:18:13;;;;;;;53.50;35.08;;;16.70;99.90;;;;;;5055728;28;20029;-78
2021/06/26 03:20:39;;;;;;;52.17;34.60;;;16.70;99.90;;;;;;5055626;28;20569;-78
2021/06/26 03:23:05;;;;;;;51.63;34.83;;;16.70;99.90;;;;;;5055463;28;20072;-78
2021/06/26 03:25:32;;;;;;;52.03;35.08;;;16.70;99.90;;;;;;5050425;28;20414;-78
2021/06/26 03:27:58;;;;;;;54.53;36.90;;;16.70;99.90;;;;;;5050977;28;20056;-78
2021/06/26 03:30:24;;;;;;;66.05;39.70;;;16.70;99.90;;;;;;5051165;28;20455;-78
2021/06/26 03:32:49;;;;;;;59.47;38.67;;;16.70;99.90;;;;;;5050139;28;20119;-78
2021/06/26 03:35:16;;;;;;;60.13;38.33;;;16.70;99.90;;;;;;5046893;28;20136;-78
2021/06/26 03:37:44;;;;;;;59.00;39.10;;;16.70;99.90;;;;;;5048203;28;20074;-78
2021/06/26 03:40:11;;;;;;;64.25;39.97;;;16.70;99.90;;;;;;5050471;28;20515;-78
2021/06/26 03:42:37;;;;;;;63.92;41.72;;;16.80;99.90;;;;;;5048373;28;20053;-78
2021/06/26 03:45:04;;;;;;;61.33;41.25;;;16.70;99.90;;;;;;5052800;28;20468;-78
2021/06/26 03:47:29;;;;;;;63.47;41.83;;;16.70;99.90;;;;;;5063658;28;20037;-78
2021/06/26 03:49:55;;;;;;;58.78;40.05;;;16.70;99.90;;;;;;5048729;28;20103;-78
2021/06/26 03:52:21;;;;;;;58.88;40.20;;;16.70;99.90;;;;;;5045457;28;20120;-78
2021/06/26 03:55:09;;;;;;;59.13;38.78;;;16.80;99.90;;;;;;5050723;28;20045;-78
2021/06/26 03:57:36;;;;;;;63.70;42.15;;;16.80;99.90;;;;;;5028975;28;20052;-78
2021/06/26 04:00:03;;;;;;;63.22;40.92;;;16.80;99.90;;;;;;5051373;28;20357;-78
2021/06/26 04:02:28;;;;;;;60.83;40.42;;;16.90;99.90;;;;;;5051141;28;20083;-78
2021/06/26 04:04:54;;;;;;;67.75;42.13;;;16.90;99.90;;;;;;5049074;28;20490;-78
2021/06/26 04:07:20;;;;;;;63.40;43.38;;;16.90;99.90;;;;;;5050629;28;20384;-78
2021/06/26 04:09:46;;;;;;;61.38;40.50;;;17.00;99.90;;;;;;5049868;28;20033;-78
2021/06/26 04:12:12;;;;;;;61.17;41.80;;;17.00;99.90;;;;;;5051436;28;20033;-78
2021/06/26 04:14:38;;;;;;;68.97;42.95;;;17.10;99.90;;;;;;5051537;28;20492;-78
2021/06/26 04:17:04;;;;;;;60.97;42.17;;;17.10;99.90;;;;;;5068271;28;20029;-78
2021/06/26 04:19:33;;;;;;;68.60;43.15;;;17.20;99.90;;;;;;5051029;28;20045;-78
2021/06/26 04:22:00;;;;;;;59.10;40.72;;;17.20;99.90;;;;;;5049127;28;20412;-78
2021/06/26 04:24:25;;;;;;;60.70;41.08;;;17.20;99.90;;;;;;5047021;28;20106;-78
2021/06/26 04:26:52;;;;;;;66.15;43.67;;;17.30;99.90;;;;;;5050063;28;20037;-78
2021/06/26 04:29:17;;;;;;;62.53;41.80;;;17.30;99.90;;;;;;5050809;28;20504;-78
2021/06/26 04:31:44;;;;;;;64.38;42.75;;;17.40;99.90;;;;;;5046558;28;20045;-78
2021/06/26 04:34:10;;;;;;;65.93;42.30;;;17.30;99.90;;;;;;5050899;28;20099;-78
2021/06/26 04:36:36;;;;;;;65.85;43.38;;;17.40;99.90;;;;;;5050863;28;20069;-78
2021/06/26 04:39:07;;;;;;;66.90;43.22;;;17.40;99.90;;;;;;5048894;28;20457;-78
2021/06/26 04:41:34;;;;;;;63.53;42.08;;;17.70;99.90;;;;;;5065842;28;20036;-78
2021/06/26 04:44:00;;;;;;;61.03;41.85;;;18.00;99.90;;;;;;5050296;28;20052;-78
2021/06/26 04:46:26;;;;;;;65.75;43.10;;;18.20;99.90;;;;;;5051259;28;20447;-78
2021/06/26 04:48:51;;;;;;;60.60;41.30;;;18.60;99.90;;;;;;5044038;28;20091;-78
2021/06/26 04:51:18;;;;;;;64.53;42.00;;;19.00;99.90;;;;;;5050909;28;20044;-78
2021/06/26 04:53:44;;;;;;;59.50;40.63;;;19.20;99.90;;;;;;5051196;28;20485;-78
2021/06/26 04:56:10;;;;;;;55.35;39.83;;;19.20;99.90;;;;;;5050326;28;20098;-78
2021/06/26 04:58:36;;;;;;;56.88;39.38;;;19.70;99.90;;;;;;5048563;28;20091;-78
2021/06/26 05:01:02;;;;;;;61.60;39.55;;;19.80;99.90;;;;;;5047370;28;20040;-78
2021/06/26 05:03:28;;;;;;;52.78;37.92;;;19.60;99.90;;;;;;5050835;28;20032;-78
2021/06/26 05:05:54;;;;;;;53.58;37.70;;;19.40;99.90;;;;;;5043056;28;20045;-78
2021/06/26 05:08:21;;;;;;;55.55;36.97;;;19.30;99.90;;;;;;5044168;28;20485;-78
2021/06/26 05:10:48;;;;;;;49.10;34.92;;;19.10;99.90;;;;;;5047969;28;20508;-75
2021/06/26 05:13:14;;;;;;;39.40;25.42;;;19.00;99.90;;;;;;5044696;28;20036;-75
2021/06/26 05:15:43;;;;;;;49.13;32.85;;;19.00;99.90;;;;;;5049375;28;20496;-75
2021/06/26 05:18:10;;;;;;;47.95;33.95;;;19.00;99.90;;;;;;5043834;28;20041;-75
2021/06/26 05:20:37;;;;;;;41.38;30.70;;;18.90;99.90;;;;;;5048843;28;20330;-75
2021/06/26 05:23:16;;;;;;;40.92;28.92;;;18.90;99.90;;;;;;5045638;28;20115;-74
2021/06/26 05:25:43;;;;;;;47.42;32.38;;;19.00;99.90;;;;;;5049438;28;20033;-74
2021/06/26 05:28:10;;;;;;;45.03;29.88;;;18.90;99.90;;;;;;5045076;28;20068;-76
2021/06/26 05:30:36;;;;;;;36.72;27.33;;;18.90;99.90;;;;;;5049332;28;20029;-75
2021/06/26 05:33:03;;;;;;;36.08;25.88;;;19.10;99.90;;;;;;5051136;28;20060;-74
2021/06/26 05:35:29;;;;;;;41.45;28.95;;;19.20;99.90;;;;;;5044373;28;20045;-75
2021/06/26 05:37:55;;;;;;;38.58;27.58;;;19.20;99.90;;;;;;5047223;28;20049;-75
2021/06/26 05:40:21;;;;;;;41.67;28.25;;;19.20;99.90;;;;;;5048305;28;20480;-75
2021/06/26 05:42:47;;;;;;;41.88;28.33;;;19.30;99.90;;;;;;5046988;28;20033;-74
2021/06/26 05:45:13;;;;;;;39.22;27.15;;;19.20;99.90;;;;;;5044560;28;20101;-74
2021/06/26 05:47:39;;;;;;;39.75;25.75;;;19.20;99.90;;;;;;5046809;28;20041;-74
2021/06/26 05:50:05;;;;;;;39.67;27.65;;;19.30;99.90;;;;;;5050535;28;20498;-74
2021/06/26 05:52:31;;;;;;;42.85;29.55;;;19.30;99.90;;;;;;5045705;28;20041;-75
2021/06/26 05:54:57;;;;;;;41.28;27.40;;;19.30;99.90;;;;;;5054152;28;20044;-75
2021/06/26 05:57:23;;;;;;;45.03;30.92;;;19.40;99.90;;;;;;5047539;28;20059;-74
2021/06/26 05:59:50;;;;;;;46.90;32.92;;;19.50;99.90;;;;;;5050760;28;20044;-75
2021/06/26 06:02:16;;;;;;;51.70;34.45;;;19.50;99.90;;;;;;5049950;28;20040;-75
2021/06/26 06:04:42;;;;;;;43.72;30.65;;;19.50;99.90;;;;;;5048620;28;21991;-75
2021/06/26 06:07:11;;;;;;;40.17;28.77;;;19.70;99.90;;;;;;5049940;28;20041;-75
2021/06/26 06:09:37;;;;;;;39.35;28.52;;;19.70;99.90;;;;;;5052665;28;20469;-74
2021/06/26 06:12:03;;;;;;;48.53;33.25;;;19.70;99.90;;;;;;5053704;28;20120;-74
2021/06/26 06:14:29;;;;;;;42.22;28.35;;;19.70;99.90;;;;;;5048952;28;20514;-74
2021/06/26 06:16:54;;;;;;;49.45;34.05;;;19.80;99.90;;;;;;5052331;28;20040;-74
2021/06/26 06:19:21;;;;;;;45.65;32.80;;;19.90;99.90;;;;;;5062921;28;20420;-77
2021/06/26 06:21:46;;;;;;;55.58;34.88;;;19.90;99.90;;;;;;5055200;28;20124;-78
2021/06/26 06:24:12;;;;;;;49.20;34.60;;;20.00;99.90;;;;;;5053744;28;20112;-78
2021/06/26 06:26:38;;;;;;;50.72;34.75;;;20.00;99.90;;;;;;5054751;28;20389;-79
2021/06/26 06:29:04;;;;;;;48.90;34.50;;;20.00;99.90;;;;;;5054461;28;20802;-79
2021/06/26 06:31:30;;;;;;;48.78;34.22;;;20.10;99.90;;;;;;5056020;28;20047;-78
2021/06/26 06:33:55;;;;;;;48.80;34.63;;;20.10;99.90;;;;;;5036442;28;20462;-81
2021/06/26 06:36:21;;;;;;;47.75;33.97;;;20.20;99.90;;;;;;5067535;28;20477;-78
2021/06/26 06:38:47;;;;;;;49.08;34.58;;;20.30;99.90;;;;;;5054105;28;20045;-80
2021/06/26 06:41:13;;;;;;;45.13;33.13;;;20.40;99.90;;;;;;5053960;28;20393;-78
2021/06/26 06:43:38;;;;;;;45.80;32.05;;;20.50;99.90;;;;;;5054585;28;20103;-83
2021/06/26 06:46:05;;;;;;;41.10;29.80;;;20.60;99.90;;;;;;5053760;28;20338;-78
2021/06/26 06:48:32;;;;;;;42.13;30.10;;;20.60;99.90;;;;;;5052303;28;20462;-77
2021/06/26 06:50:58;;;;;;;42.25;30.95;;;20.70;99.90;;;;;;5048405;28;20480;-76
2021/06/26 06:53:24;;;;;;;41.67;29.65;;;20.90;99.90;;;;;;5049097;28;20060;-75
2021/06/26 06:55:53;;;;;;;45.97;30.48;;;21.00;99.90;;;;;;5050664;28;20466;-78
2021/06/26 06:58:19;;;;;;;40.55;30.08;;;21.10;99.90;;;;;;5061172;28;20041;-76
2021/06/26 07:00:45;;;;;;;43.80;29.52;;;21.20;99.90;;;;;;5051224;28;20137;-79
2021/06/26 07:03:11;;;;;;;34.47;26.55;;;21.30;99.90;;;;;;5063642;28;20037;-79
2021/06/26 07:05:37;;;;;;;42.85;29.42;;;21.40;99.90;;;;;;5051614;28;20029;-79
2021/06/26 07:08:03;;;;;;;40.08;27.52;;;21.50;99.90;;;;;;5050701;28;20323;-79
2021/06/26 07:10:29;;;;;;;33.38;25.63;;;21.60;99.90;;;;;;5062036;28;20036;-77
2021/06/26 07:12:55;;;;;;;33.33;25.50;;;21.70;99.90;;;;;;5053289;28;20044;-81
2021/06/26 07:15:21;;;;;;;34.05;24.98;;;21.40;99.90;;;;;;5050691;28;20053;-79
2021/06/26 07:17:46;;;;;;;31.35;23.25;;;21.50;99.90;;;;;;5051021;28;20107;-79
2021/06/26 07:20:13;;;;;;;30.45;23.10;;;21.50;99.90;;;;;;5044339;28;20053;-78
2021/06/26 07:22:38;;;;;;;31.27;22.77;;;21.60;99.90;;;;;;5050401;28;20053;-81
2021/06/26 07:25:05;;;;;;;27.38;21.25;;;21.60;99.90;;;;;;5053689;28;20057;-79
2021/06/26 07:27:30;;;;;;;27.85;21.58;;;21.60;99.90;;;;;;5039136;28;20037;-82
2021/06/26 07:29:57;;;;;;;27.80;22.05;;;21.70;99.90;;;;;;5044497;28;20053;-79
2021/06/26 07:32:23;;;;;;;33.08;23.02;;;21.70;99.90;;;;;;5049368;28;20037;-77
2021/06/26 07:34:48;;;;;;;29.52;21.45;;;21.80;99.90;;;;;;5051523;28;20155;-80
2021/06/26 07:37:14;;;;;;;28.33;21.48;;;21.80;99.90;;;;;;5051267;28;20066;-82
2021/06/26 07:39:40;;;;;;;30.15;21.08;;;21.90;99.90;;;;;;5050788;28;20102;-82
2021/06/26 07:42:06;;;;;;;28.55;19.98;;;21.80;99.90;;;;;;5051018;28;20041;-81
2021/06/26 07:44:32;;;;;;;26.55;21.50;;;21.90;99.90;;;;;;5045156;28;20569;-81
2021/06/26 07:46:58;;;;;;;29.55;20.88;;;21.90;99.90;;;;;;5050096;28;20029;-80
2021/06/26 07:49:23;;;;;;;24.67;20.05;;;21.90;99.90;;;;;;5050237;28;20369;-78
2021/06/26 07:51:49;;;;;;;27.23;20.83;;;21.90;99.90;;;;;;5050227;28;20056;-79
2021/06/26 07:54:18;;;;;;;27.63;21.45;;;21.90;99.90;;;;;;5051577;28;20078;-82
2021/06/26 07:56:47;;;;;;;28.33;21.58;;;21.90;99.90;;;;;;5051123;28;20045;-78
2021/06/26 07:59:13;;;;;;;28.02;21.83;;;22.00;99.90;;;;;;5049853;28;20390;-79
2021/06/26 08:01:39;;;;;;;30.30;22.15;;;22.10;99.90;;;;;;5049429;28;20124;-81
2021/06/26 08:04:05;;;;;;;29.05;21.23;;;22.00;99.90;;;;;;5050731;28;20480;-80
2021/06/26 08:06:31;;;;;;;29.77;21.65;;;22.10;99.90;;;;;;5047890;28;20049;-78
2021/06/26 08:08:57;;;;;;;26.90;20.48;;;22.10;99.90;;;;;;5050172;28;20459;-79
2021/06/26 08:11:23;;;;;;;24.67;19.75;;;22.30;99.90;;;;;;5052844;28;20119;-80
2021/06/26 08:13:50;;;;;;;29.25;21.67;;;22.30;99.90;;;;;;5051665;28;20032;-81
2021/06/26 08:16:16;;;;;;;31.00;20.77;;;22.40;99.90;;;;;;5043831;28;20094;-79
2021/06/26 08:18:42;;;;;;;26.25;19.17;;;22.50;99.90;;;;;;5053164;28;20029;-82
2021/06/26 08:21:08;;;;;;;27.55;19.92;;;22.60;99.90;;;;;;5051953;28;20048;-80
2021/06/26 08:23:34;;;;;;;27.25;20.33;;;22.50;99.90;;;;;;5051994;28;20370;-77
2021/06/26 08:26:00;;;;;;;25.30;17.80;;;22.50;99.90;;;;;;5052249;28;20065;-83
2021/06/26 08:28:26;;;;;;;24.02;18.25;;;22.50;99.90;;;;;;5052351;28;20485;-83
2021/06/26 08:30:52;;;;;;;23.38;17.08;;;22.70;99.90;;;;;;5052197;28;20045;-80
2021/06/26 08:33:18;;;;;;;28.10;18.77;;;22.80;99.90;;;;;;5053455;28;20045;-83
2021/06/26 08:35:44;;;;;;;25.58;18.95;;;22.90;99.90;;;;;;5051470;28;20049;-79
2021/06/26 08:38:09;;;;;;;24.45;18.63;;;23.00;99.90;;;;;;5050807;28;20156;-81
2021/06/26 08:40:35;;;;;;;23.65;18.15;;;22.90;99.90;;;;;;5048642;28;20044;-82
2021/06/26 08:43:01;;;;;;;28.65;19.35;;;23.00;99.90;;;;;;5047447;28;20057;-79
2021/06/26 08:45:27;;;;;;;22.70;18.90;;;23.00;99.90;;;;;;5028271;28;20473;-81
2021/06/26 08:47:55;;;;;;;20.45;16.02;;;23.20;99.90;;;;;;5028472;28;20057;-79
2021/06/26 08:50:23;;;;;;;21.40;16.38;;;23.20;99.90;;;;;;5049534;28;20044;-80
2021/06/26 08:52:49;;;;;;;20.55;15.48;;;23.10;99.90;;;;;;5039773;28;20106;-83
2021/06/26 08:55:16;;;;;;;19.80;15.18;;;23.40;99.90;;;;;;5044213;28;20026;-81
2021/06/26 08:57:44;;;;;;;20.10;16.30;;;23.30;99.90;;;;;;5047241;28;20029;-81
2021/06/26 09:00:19;;;;;;;19.92;14.63;;;23.40;99.90;;;;;;5051678;28;20048;-84
2021/06/26 09:02:45;;;;;;;21.85;14.98;;;23.70;99.90;;;;;;5052570;28;20045;-84
2021/06/26 09:05:22;;;;;;;21.60;14.48;;;23.80;99.90;;;;;;5049873;28;20473;-82
2021/06/26 09:07:48;;;;;;;16.50;13.13;;;23.90;99.90;;;;;;5048676;28;20045;-83
2021/06/26 09:10:16;;;;;;;22.35;14.05;;;24.00;99.90;;;;;;5048156;28;20037;-80
2021/06/26 09:12:43;;;;;;;16.00;13.90;;;24.20;99.90;;;;;;5052873;28;20198;-82
2021/06/26 09:15:20;;;;;;;18.92;13.68;;;24.30;99.90;;;;;;5051602;28;20158;-83
2021/06/26 09:17:46;;;;;;;17.75;14.23;;;24.50;99.90;;;;;;5048085;28;20029;-83
2021/06/26 09:20:12;;;;;;;17.50;12.02;;;24.30;99.90;;;;;;5048692;28;20456;-82
2021/06/26 09:22:39;;;;;;;16.20;11.98;;;24.50;99.90;;;;;;5049523;28;20049;-86
2021/06/26 09:25:29;;;;;;;14.38;10.98;;;24.50;99.90;;;;;;5050630;28;20128;-84
2021/06/26 09:27:59;;;;;;;13.77;11.60;;;24.70;99.90;;;;;;5051886;28;20590;-83
2021/06/26 09:30:35;;;;;;;15.77;9.80;;;24.70;99.90;;;;;;5064201;28;20155;-84
2021/06/26 09:33:24;;;;;;;10.25;8.52;;;24.70;99.90;;;;;;5048300;28;20124;-85
2021/06/26 09:36:03;;;;;;;9.77;7.38;;;24.70;99.90;;;;;;5048353;28;20403;-83
2021/06/26 09:38:31;;;;;;;10.60;8.35;;;24.70;99.90;;;;;;5050908;28;20080;-87
2021/06/26 09:40:58;;;;;;;9.85;7.07;;;24.90;99.90;;;;;;5050560;28;20041;-86
2021/06/26 09:43:30;;;;;;;9.93;8.27;;;25.00;99.90;;;;;;5050724;28;20033;-83
2021/06/26 09:46:11;;;;;;;11.40;7.32;;;24.90;99.90;;;;;;5049857;28;20037;-81
2021/06/26 09:52:18;;;;;;;9.05;5.93;;;25.10;99.90;;;;;;5052927;28;20087;-82
2021/06/26 09:54:44;;;;;;;6.25;5.35;;;25.20;99.90;;;;;;5053279;28;20045;-83
2021/06/26 09:57:10;;;;;;;6.55;5.40;;;25.20;99.90;;;;;;5053072;28;20036;-80
2021/06/26 09:59:36;;;;;;;6.07;4.90;;;25.30;99.90;;;;;;5050812;28;20538;-85
2021/06/26 10:02:03;;;;;;;8.48;5.55;;;25.40;99.90;;;;;;5052135;28;20043;-85
2021/06/26 10:04:28;;;;;;;8.20;6.20;;;25.30;99.90;;;;;;5059692;28;20035;-84
2021/06/26 10:06:56;;;;;;;8.45;6.80;;;25.40;99.90;;;;;;5050891;28;20033;-84
2021/06/26 10:09:22;;;;;;;6.63;5.43;;;25.50;99.90;;;;;;5050888;28;20488;-82
2021/06/26 10:11:49;;;;;;;7.68;5.10;;;25.50;99.90;;;;;;5049830;28;20036;-84
2021/06/26 10:14:15;;;;;;;3.72;3.20;;;25.70;99.90;;;;;;5048030;28;20034;-85
2021/06/26 10:16:42;;;;;;;4.20;3.45;;;26.00;99.90;;;;;;5051621;28;20044;-85
2021/06/26 10:19:10;;;;;;;4.88;3.80;;;26.10;99.90;;;;;;5034085;28;20114;-85
2021/06/26 10:21:36;;;;;;;3.65;3.35;;;26.50;99.90;;;;;;5065615;28;20060;-85
2021/06/26 10:24:08;;;;;;;3.72;3.20;;;26.50;99.90;;;;;;5035295;28;20424;-85
2021/06/26 10:26:36;;;;;;;5.60;2.88;;;26.60;99.90;;;;;;5031848;28;20107;-85
2021/06/26 10:29:03;;;;;;;5.40;3.03;;;26.80;99.80;;;;;;5036618;28;20052;-84
2021/06/26 10:31:30;;;;;;;5.32;3.58;;;26.80;99.90;;;;;;5049787;28;20037;-83
2021/06/26 10:34:16;;;;;;;6.18;3.40;;;26.90;99.60;;;;;;5078741;28;20063;-86
2021/06/26 10:36:56;;;;;;;3.38;2.97;;;26.70;99.80;;;;;;5067866;28;20045;-87
2021/06/26 10:39:22;;;;;;;5.50;3.70;;;26.80;99.80;;;;;;5077678;28;20110;-85
2021/06/26 10:42:08;;;;;;;4.82;4.07;;;26.90;99.90;;;;;;5044028;28;20135;-86
2021/06/26 10:44:51;;;;;;;9.52;7.75;;;26.80;99.40;;;;;;5068927;28;20128;-80
2021/06/26 10:47:33;;;;;;;13.27;8.82;;;26.60;99.60;;;;;;5086129;28;20049;-84
2021/06/26 10:50:17;;;;;;;9.13;8.02;;;26.30;99.60;;;;;;5047053;28;20056;-83
2021/06/26 10:52:53;;;;;;;14.52;10.90;;;26.20;99.90;;;;;;5073264;28;20037;-85
2021/06/26 10:55:33;;;;;;;15.35;11.40;;;26.10;99.90;;;;;;5041669;28;20053;-85
2021/06/26 10:58:04;;;;;;;13.85;11.82;;;26.10;99.90;;;;;;5053376;28;20036;-85
2021/06/26 11:00:35;;;;;;;13.50;11.45;;;26.10;99.90;;;;;;5055267;28;20028;-84
2021/06/26 11:03:02;;;;;;;17.38;13.68;;;26.30;99.90;;;;;;5049989;28;20041;-84
2021/06/26 11:05:31;;;;;;;16.33;13.25;;;25.80;99.90;;;;;;5048682;28;20044;-85
2021/06/26 11:07:57;;;;;;;13.52;12.05;;;25.50;99.90;;;;;;5054075;28;20041;-85
2021/06/26 11:10:23;;;;;;;18.27;15.15;;;25.40;99.90;;;;;;5053411;28;20033;-85
2021/06/26 11:12:49;;;;;;;20.15;15.15;;;25.10;99.90;;;;;;5053828;28;20040;-83
2021/06/26 11:15:24;;;;;;;20.75;15.32;;;24.80;99.90;;;;;;5053154;28;20047;-83
2021/06/26 11:17:50;;;;;;;18.17;14.45;;;24.70;99.90;;;;;;5049554;28;20388;-84
2021/06/26 11:20:18;;;;;;;20.15;14.98;;;24.70;99.90;;;;;;5054052;28;20037;-81
2021/06/26 11:22:58;;;;;;;17.42;14.90;;;24.70;99.90;;;;;;5052916;28;20033;-83
2021/06/26 11:25:29;;;;;;;18.85;14.68;;;24.50;99.90;;;;;;5028256;28;20056;-82
2021/06/26 11:28:09;;;;;;;16.52;13.70;;;24.60;99.90;;;;;;5047170;28;20033;-82
2021/06/26 11:30:36;;;;;;;16.23;12.15;;;24.90;99.90;;;;;;5049904;28;20037;-81
2021/06/26 11:33:03;;;;;;;18.85;13.35;;;25.20;99.90;;;;;;5053275;28;20072;-81
2021/06/26 11:35:34;;;;;;;18.30;14.85;;;25.00;99.90;;;;;;5055895;28;20040;-83
2021/06/26 11:38:00;;;;;;;21.98;16.77;;;25.20;99.90;;;;;;5066739;28;20053;-81
2021/06/26 11:40:28;;;;;;;22.10;17.02;;;25.10;99.90;;;;;;5043041;28;20448;-84
2021/06/26 11:43:03;;;;;;;20.67;16.92;;;25.20;99.90;;;;;;5047618;28;20114;-85
2021/06/26 11:45:34;;;;;;;23.83;16.98;;;25.30;99.90;;;;;;5029742;28;20476;-80
2021/06/26 11:48:05;;;;;;;23.58;16.80;;;25.40;99.90;;;;;;5052455;28;20052;-82
2021/06/26 11:50:32;;;;;;;26.92;18.50;;;25.30;99.90;;;;;;5052184;28;20152;-82
2021/06/26 11:53:12;;;;;;;23.73;18.63;;;25.30;99.90;;;;;;5053077;28;20043;-80
2021/06/26 11:55:50;;;;;;;27.70;19.77;;;25.30;99.90;;;;;;5032947;28;20041;-77
2021/06/26 11:58:17;;;;;;;28.92;21.77;;;24.80;99.90;;;;;;5052176;28;20508;-78
2021/06/26 12:00:43;;;;;;;25.05;20.20;;;24.50;99.90;;;;;;5052137;28;20045;-81
2021/06/26 12:03:19;;;;;;;26.05;19.92;;;24.10;99.90;;;;;;5051098;28;20056;-81
2021/06/26 12:05:58;;;;;;;27.23;21.05;;;23.80;99.90;;;;;;5044989;28;20055;-82
2021/06/26 12:08:24;;;;;;;26.52;20.90;;;23.80;99.90;;;;;;5037644;28;20045;-83
2021/06/26 12:10:50;;;;;;;27.40;21.48;;;23.70;99.90;;;;;;5052343;28;20404;-82
2021/06/26 12:13:16;;;;;;;29.02;22.65;;;23.80;99.90;;;;;;5053334;28;20091;-82
2021/06/26 12:15:43;;;;;;;30.08;23.50;;;23.80;99.90;;;;;;5052235;28;20085;-81
2021/06/26 12:18:09;;;;;;;34.65;25.23;;;23.70;99.90;;;;;;5051198;28;20103;-83
2021/06/26 12:20:37;;;;;;;33.28;23.42;;;23.50;99.90;;;;;;5049426;28;20076;-81
2021/06/26 12:23:08;;;;;;;32.95;24.15;;;23.60;99.90;;;;;;5041738;28;20052;-81
2021/06/26 12:25:37;;;;;;;33.45;24.50;;;23.80;99.90;;;;;;5065056;28;20066;-83
2021/06/26 12:28:03;;;;;;;33.08;23.83;;;24.10;99.90;;;;;;5047660;28;20068;-83
2021/06/26 12:30:29;;;;;;;28.98;21.52;;;24.30;99.90;;;;;;5029816;28;20076;-82
2021/06/26 12:33:10;;;;;;;33.33;24.73;;;24.10;99.90;;;;;;5045355;28;20507;-83